Time;durP1;ratioP1;P1;durP2;ratioP2;P2;SDS_P1;SDS_P2;PMS_P1;PMS_P2;Temp;Humidity;BMP_temperature;BMP_pressure;BME280_temperature;BME280_humidity;BME280_pressure;Samples;Min_cycle;Max_cycle;Signal;HPM_P1;HPM_P2
2021/07/29 00:01:41;;;;;;;;;;;;;;;24.16;53.23;99686.25;5051547;28;786;-65
2021/07/29 00:04:08;;;;;;;;;;;;;;;24.22;53.79;99666.53;5051471;28;841;-65
2021/07/29 00:06:35;;;;;;;;;;;;;;;24.02;54.10;99678.66;5051532;28;902;-65
2021/07/29 00:09:03;;;;;;;;;;;;;;;23.91;54.38;99672.91;5051375;28;1947;-65
2021/07/29 00:11:29;;;;;;;;;;;;;;;23.82;54.27;99674.63;5051453;28;814;-65
2021/07/29 00:14:01;;;;;;;;;;;;;;;23.81;53.74;99678.72;5051724;28;991;-65
2021/07/29 00:16:32;;;;;;;;;;;;;;;23.77;53.76;99658.44;5029973;28;1258;-65
2021/07/29 00:19:05;;;;;;;;;;;;;;;23.80;53.66;99663.06;5031350;28;883;-66
2021/07/29 00:21:32;;;;;;;;;;;;;;;23.79;53.68;99649.44;5031373;28;913;-65
2021/07/29 00:23:59;;;;;;;;;;;;;;;23.81;53.25;99638.44;5031323;28;786;-67
2021/07/29 00:26:27;;;;;;;;;;;;;;;23.77;53.51;99654.81;5031304;28;830;-67
2021/07/29 00:28:54;;;;;;;;;;;;;;;23.79;53.19;99641.78;5031426;28;1964;-66
2021/07/29 00:31:27;;;;;;;;;;;;;;;23.87;52.65;99646.97;5031360;28;818;-65
2021/07/29 00:33:54;;;;;;;;;;;;;;;23.97;52.21;99642.69;5031269;28;823;-65
2021/07/29 00:36:21;;;;;;;;;;;;;;;23.84;52.12;99612.06;5029955;28;1200;-65
2021/07/29 00:38:48;;;;;;;;;;;;;;;24.01;51.76;99637.59;5033442;28;811;-63
2021/07/29 00:41:14;;;;;;;;;;;;;;;23.96;51.70;99639.09;5035430;28;858;-67
2021/07/29 00:43:41;;;;;;;;;;;;;;;24.01;51.60;99634.78;5035142;28;819;-64
2021/07/29 00:46:08;;;;;;;;;;;;;;;24.03;51.08;99620.94;5035190;28;854;-64
2021/07/29 00:48:33;;;;;;;;;;;;;;;24.07;50.83;99615.06;5035160;28;1890;-65
2021/07/29 00:51:00;;;;;;;;;;;;;;;24.18;50.03;99621.56;5035132;28;901;-66
2021/07/29 00:53:28;;;;;;;;;;;;;;;24.29;50.07;99615.25;5035747;28;803;-64
2021/07/29 00:55:56;;;;;;;;;;;;;;;24.20;50.31;99613.38;5035014;28;819;-67
2021/07/29 00:58:22;;;;;;;;;;;;;;;24.18;50.18;99604.63;5035097;28;864;-65
2021/07/29 01:00:49;;;;;;;;;;;;;;;24.19;49.99;99603.34;5035048;28;1029;-64
2021/07/29 01:03:15;;;;;;;;;;;;;;;24.15;49.78;99594.31;5035620;28;755;-63
2021/07/29 01:05:42;;;;;;;;;;;;;;;24.10;49.95;99595.06;5034942;28;846;-63
2021/07/29 01:08:08;;;;;;;;;;;;;;;23.98;50.47;99599.06;5034934;28;767;-63
2021/07/29 01:10:35;;;;;;;;;;;;;;;23.83;50.50;99599.19;5034474;28;1949;-63
2021/07/29 01:13:02;;;;;;;;;;;;;;;23.72;51.13;99604.72;5034496;28;904;-63
2021/07/29 01:15:28;;;;;;;;;;;;;;;23.70;50.94;99598.81;5044253;28;1235;-63
2021/07/29 01:18:01;;;;;;;;;;;;;;;23.62;51.22;99604.91;5054411;28;850;-63
2021/07/29 01:20:31;;;;;;;;;;;;;;;23.55;51.36;99590.44;5054278;28;921;-63
2021/07/29 01:22:58;;;;;;;;;;;;;;;23.46;51.72;99601.91;5054517;28;807;-63
2021/07/29 01:25:25;;;;;;;;;;;;;;;23.43;51.78;99595.97;5054391;28;795;-63
2021/07/29 01:27:52;;;;;;;;;;;;;;;23.33;51.74;99594.59;5054117;28;897;-63
2021/07/29 01:30:18;;;;;;;;;;;;;;;23.28;52.11;99592.50;5054006;28;1975;-63
2021/07/29 01:32:45;;;;;;;;;;;;;;;23.29;51.90;99604.53;5054045;28;831;-63
2021/07/29 01:35:12;;;;;;;;;;;;;;;23.16;52.48;99597.22;5054247;28;811;-63
2021/07/29 01:37:41;;;;;;;;;;;;;;;23.10;52.53;99595.59;5054317;28;814;-63
2021/07/29 01:40:08;;;;;;;;;;;;;;;22.96;53.14;99600.81;5053987;28;894;-63
2021/07/29 01:42:35;;;;;;;;;;;;;;;22.72;53.64;99600.22;5053933;28;874;-63
2021/07/29 01:45:02;;;;;;;;;;;;;;;22.51;54.23;99588.94;5053795;28;811;-63
2021/07/29 01:47:29;;;;;;;;;;;;;;;22.37;54.97;99601.78;5053759;28;858;-64
2021/07/29 01:49:56;;;;;;;;;;;;;;;22.25;55.18;99593.66;5053820;28;1947;-63
2021/07/29 01:52:22;;;;;;;;;;;;;;;22.18;55.37;99586.34;5053766;28;807;-63
2021/07/29 01:54:49;;;;;;;;;;;;;;;22.01;55.91;99588.91;5053487;28;854;-63
2021/07/29 01:57:16;;;;;;;;;;;;;;;21.89;56.61;99595.59;5053613;28;916;-63
2021/07/29 01:59:42;;;;;;;;;;;;;;;21.79;56.77;99601.34;5053598;28;850;-63
2021/07/29 02:02:09;;;;;;;;;;;;;;;21.64;57.59;99589.31;5053698;28;799;-63
2021/07/29 02:04:36;;;;;;;;;;;;;;;21.57;57.64;99595.31;5035748;28;1420;-63
2021/07/29 02:07:03;;;;;;;;;;;;;;;21.52;57.66;99596.00;5053347;28;904;-64
2021/07/29 02:09:30;;;;;;;;;;;;;;;21.34;58.08;99594.88;5053326;28;1947;-63
2021/07/29 02:11:59;;;;;;;;;;;;;;;21.18;58.66;99592.50;5053448;28;791;-63
2021/07/29 02:14:28;;;;;;;;;;;;;;;21.03;59.37;99592.47;5053310;28;1151;-64
2021/07/29 02:16:54;;;;;;;;;;;;;;;20.94;59.54;99596.13;5053300;28;775;-63
2021/07/29 02:19:21;;;;;;;;;;;;;;;20.82;59.85;99593.56;5053237;28;878;-63
2021/07/29 02:21:47;;;;;;;;;;;;;;;20.68;60.17;99590.22;5035212;28;1501;-63
2021/07/29 02:24:14;;;;;;;;;;;;;;;20.63;60.51;99590.09;5052938;28;815;-64
2021/07/29 02:26:40;;;;;;;;;;;;;;;20.54;60.80;99594.47;5053102;28;874;-64
2021/07/29 02:29:07;;;;;;;;;;;;;;;20.48;60.92;99587.94;5052909;28;1909;-63
2021/07/29 02:31:34;;;;;;;;;;;;;;;20.42;61.19;99587.06;5052927;28;837;-64
2021/07/29 02:34:01;;;;;;;;;;;;;;;20.34;61.37;99597.84;5052857;28;862;-64
2021/07/29 02:36:27;;;;;;;;;;;;;;;20.20;61.86;99601.34;5034954;28;1373;-63
2021/07/29 02:38:54;;;;;;;;;;;;;;;20.13;62.09;99602.47;5052831;28;811;-64
2021/07/29 02:41:21;;;;;;;;;;;;;;;20.09;62.41;99604.66;5052713;28;882;-63
2021/07/29 02:43:48;;;;;;;;;;;;;;;20.11;62.50;99601.38;5052775;28;842;-64
2021/07/29 02:46:14;;;;;;;;;;;;;;;20.17;62.44;99593.88;5052585;28;893;-63
2021/07/29 02:48:41;;;;;;;;;;;;;;;20.26;61.97;99601.47;5034681;28;1885;-64
2021/07/29 02:51:08;;;;;;;;;;;;;;;20.29;61.93;99606.13;5052494;28;891;-64
2021/07/29 02:53:34;;;;;;;;;;;;;;;20.33;61.65;99615.16;5052712;28;898;-64
2021/07/29 02:56:03;;;;;;;;;;;;;;;20.29;61.77;99617.34;5052427;28;897;-63
2021/07/29 02:58:29;;;;;;;;;;;;;;;20.24;61.95;99615.97;5052417;28;811;-63
2021/07/29 03:00:57;;;;;;;;;;;;;;;20.22;62.01;99626.13;5051867;28;882;-63
2021/07/29 03:03:24;;;;;;;;;;;;;;;20.24;61.89;99618.00;5052387;28;878;-64
2021/07/29 03:05:50;;;;;;;;;;;;;;;20.26;61.82;99621.13;5052236;28;843;-64
2021/07/29 03:08:17;;;;;;;;;;;;;;;20.22;61.88;99618.47;5052556;28;826;-64
2021/07/29 03:10:48;;;;;;;;;;;;;;;20.13;62.30;99615.72;5052131;28;1917;-64
2021/07/29 03:13:15;;;;;;;;;;;;;;;20.14;62.36;99618.06;5052247;28;890;-64
2021/07/29 03:15:41;;;;;;;;;;;;;;;20.12;62.35;99625.38;5051865;28;1170;-64
2021/07/29 03:18:08;;;;;;;;;;;;;;;20.07;62.71;99623.97;5052079;28;822;-63
2021/07/29 03:20:35;;;;;;;;;;;;;;;20.02;62.91;99615.44;5052014;28;819;-63
2021/07/29 03:23:02;;;;;;;;;;;;;;;20.03;62.90;99612.16;5052173;28;878;-64
2021/07/29 03:25:29;;;;;;;;;;;;;;;20.05;62.75;99608.88;5034057;28;1185;-64
2021/07/29 03:27:56;;;;;;;;;;;;;;;20.10;62.65;99614.63;5051930;28;854;-63
2021/07/29 03:30:23;;;;;;;;;;;;;;;20.14;62.57;99617.25;5051726;28;1910;-64
2021/07/29 03:32:49;;;;;;;;;;;;;;;20.10;62.80;99614.63;5051819;28;860;-63
2021/07/29 03:35:16;;;;;;;;;;;;;;;20.07;63.01;99606.38;5052135;28;814;-63
2021/07/29 03:37:43;;;;;;;;;;;;;;;20.05;62.89;99606.84;5051728;28;842;-64
2021/07/29 03:40:10;;;;;;;;;;;;;;;20.02;63.18;99612.66;5051781;28;807;-64
2021/07/29 03:42:37;;;;;;;;;;;;;;;20.03;63.36;99603.72;5051682;28;873;-63
2021/07/29 03:45:04;;;;;;;;;;;;;;;20.11;62.98;99604.19;5051941;28;881;-63
2021/07/29 03:47:31;;;;;;;;;;;;;;;20.15;63.00;99604.78;5051865;28;866;-63
2021/07/29 03:49:58;;;;;;;;;;;;;;;20.13;63.32;99608.06;5051534;28;1890;-64
2021/07/29 03:52:24;;;;;;;;;;;;;;;20.14;63.39;99612.44;5051486;28;810;-63
2021/07/29 03:54:52;;;;;;;;;;;;;;;20.17;63.38;99607.91;5051563;28;819;-63
2021/07/29 03:57:19;;;;;;;;;;;;;;;20.19;63.42;99616.63;5033620;28;1267;-64
2021/07/29 03:59:46;;;;;;;;;;;;;;;20.16;63.85;99612.75;5051503;28;822;-64
2021/07/29 04:02:12;;;;;;;;;;;;;;;20.22;63.63;99600.88;5051775;28;858;-64
2021/07/29 04:04:40;;;;;;;;;;;;;;;20.23;63.91;99603.22;5051416;28;869;-64
2021/07/29 04:07:07;;;;;;;;;;;;;;;20.30;63.96;99605.66;5051430;28;823;-63
2021/07/29 04:09:36;;;;;;;;;;;;;;;20.56;63.33;99600.38;5051222;28;1947;-64
2021/07/29 04:12:03;;;;;;;;;;;;;;;20.88;62.57;99591.66;5051413;28;889;-64
2021/07/29 04:14:31;;;;;;;;;;;;;;;21.21;61.83;99591.56;5054681;28;1368;-64
2021/07/29 04:16:58;;;;;;;;;;;;;;;21.49;61.47;99594.94;5055491;28;849;-64
2021/07/29 04:19:25;;;;;;;;;;;;;;;21.80;61.38;99600.06;5055508;28;886;-64
2021/07/29 04:21:52;;;;;;;;;;;;;;;22.11;60.88;99587.53;5055285;28;882;-64
2021/07/29 04:24:19;;;;;;;;;;;;;;;22.35;60.63;99584.59;5055539;28;811;-64
2021/07/29 04:26:45;;;;;;;;;;;;;;;22.52;60.38;99584.06;5055601;28;842;-64
2021/07/29 04:29:12;;;;;;;;;;;;;;;22.68;60.08;99589.19;5055170;28;1906;-64
2021/07/29 04:31:39;;;;;;;;;;;;;;;22.81;59.54;99588.81;5055277;28;787;-64
2021/07/29 04:34:06;;;;;;;;;;;;;;;22.86;59.27;99578.91;5055215;28;878;-63
2021/07/29 04:36:41;;;;;;;;;;;;;;;22.93;58.95;99570.78;5055160;28;866;-64
2021/07/29 04:39:08;;;;;;;;;;;;;;;23.03;58.66;99577.09;5055084;28;874;-63
2021/07/29 04:41:42;;;;;;;;;;;;;;;23.09;58.21;99579.97;5055343;28;885;-64
2021/07/29 04:44:09;;;;;;;;;;;;;;;23.14;57.73;99582.06;5055044;28;897;-63
2021/07/29 04:46:37;;;;;;;;;;;;;;;23.20;57.50;99569.59;5054971;28;1016;-63
2021/07/29 04:49:03;;;;;;;;;;;;;;;23.38;57.31;99567.72;5054871;28;1969;-64
2021/07/29 04:51:31;;;;;;;;;;;;;;;23.53;56.69;99573.25;5054911;28;819;-64
2021/07/29 04:53:58;;;;;;;;;;;;;;;23.63;56.48;99574.63;5054869;28;1004;-64
2021/07/29 04:56:26;;;;;;;;;;;;;;;23.68;56.17;99573.91;5054781;28;826;-64
2021/07/29 04:58:52;;;;;;;;;;;;;;;23.86;56.33;99578.47;5054735;28;857;-64
2021/07/29 05:01:19;;;;;;;;;;;;;;;24.14;55.77;99570.22;5054806;28;806;-64
2021/07/29 05:03:46;;;;;;;;;;;;;;;24.41;55.66;99565.22;5036731;28;1168;-63
2021/07/29 05:06:12;;;;;;;;;;;;;;;24.59;55.30;99566.91;5054559;28;791;-63
2021/07/29 05:16:52;;;;;;;;;;;;;;;25.53;53.48;99564.94;5014852;28;617;-63
2021/07/29 05:19:19;;;;;;;;;;;;;;;25.72;52.17;99567.28;5014734;28;894;-64
2021/07/29 05:21:46;;;;;;;;;;;;;;;26.06;52.01;99562.41;5014617;28;868;-64
2021/07/29 05:24:12;;;;;;;;;;;;;;;26.41;51.35;99555.41;5014128;28;814;-64
2021/07/29 05:26:41;;;;;;;;;;;;;;;26.96;50.56;99559.38;5014472;28;898;-63
2021/07/29 05:29:07;;;;;;;;;;;;;;;27.55;48.96;99562.16;5014709;28;1918;-64
2021/07/29 05:31:36;;;;;;;;;;;;;;;28.07;47.95;99570.53;5014378;28;814;-64
2021/07/29 05:34:05;;;;;;;;;;;;;;;28.35;46.83;99568.72;5014522;28;810;-64
2021/07/29 05:36:32;;;;;;;;;;;;;;;28.64;46.44;99562.22;5014281;28;802;-64
2021/07/29 05:38:58;;;;;;;;;;;;;;;28.98;45.52;99566.75;5014383;28;826;-64
2021/07/29 05:41:25;;;;;;;;;;;;;;;29.28;45.35;99567.38;5014214;28;945;-64
2021/07/29 05:43:52;;;;;;;;;;;;;;;30.29;43.61;99562.16;5014403;28;834;-64
2021/07/29 05:46:19;;;;;;;;;;;;;;;31.34;41.42;99559.78;5014123;28;889;-64
2021/07/29 05:48:45;;;;;;;;;;;;;;;32.12;40.01;99555.63;5014140;28;1961;-64
2021/07/29 05:51:12;;;;;;;;;;;;;;;32.95;38.26;99563.19;5014077;28;878;-64
2021/07/29 05:53:39;;;;;;;;;;;;;;;33.57;37.04;99557.69;5014057;28;811;-64
2021/07/29 05:56:06;;;;;;;;;;;;;;;33.97;36.10;99557.19;5013996;28;874;-64
2021/07/29 05:58:32;;;;;;;;;;;;;;;34.34;35.36;99555.63;5013942;28;852;-64
2021/07/29 06:00:58;;;;;;;;;;;;;;;34.93;34.48;99551.69;5013899;28;854;-64
2021/07/29 06:03:24;;;;;;;;;;;;;;;35.08;33.72;99555.81;5013836;28;901;-64
2021/07/29 06:05:55;;;;;;;;;;;;;;;35.14;33.61;99551.44;5013785;28;882;-64
2021/07/29 06:08:21;;;;;;;;;;;;;;;35.31;33.29;99553.63;5013754;28;798;-64
2021/07/29 06:10:48;;;;;;;;;;;;;;;35.67;32.47;99552.47;5013645;28;1878;-64
2021/07/29 06:13:15;;;;;;;;;;;;;;;35.89;32.21;99547.13;5013634;28;895;-64
2021/07/29 06:15:41;;;;;;;;;;;;;;;35.90;32.15;99552.28;5038657;28;1241;-64
2021/07/29 06:18:11;;;;;;;;;;;;;;;36.10;31.65;99553.25;5053407;28;908;-64
2021/07/29 06:20:37;;;;;;;;;;;;;;;36.29;31.01;99558.47;5053334;28;877;-63
2021/07/29 06:23:04;;;;;;;;;;;;;;;36.07;31.08;99547.94;5053150;28;857;-63
2021/07/29 06:25:30;;;;;;;;;;;;;;;36.24;30.79;99548.00;5053090;28;822;-63
2021/07/29 06:27:57;;;;;;;;;;;;;;;36.38;30.76;99546.31;5052952;28;917;-63
2021/07/29 06:30:24;;;;;;;;;;;;;;;36.65;29.37;99542.03;5052931;28;1965;-63
2021/07/29 06:32:51;;;;;;;;;;;;;;;36.64;29.89;99544.16;5052997;28;862;-63
2021/07/29 06:35:18;;;;;;;;;;;;;;;36.54;29.28;99543.28;5052288;28;807;-63
2021/07/29 06:37:45;;;;;;;;;;;;;;;36.88;29.56;99539.66;5052593;28;842;-63
2021/07/29 06:40:12;;;;;;;;;;;;;;;36.90;27.49;99533.28;5052905;28;795;-63
2021/07/29 06:42:37;;;;;;;;;;;;;;;36.74;28.75;99535.59;5052738;28;909;-63
2021/07/29 06:45:04;;;;;;;;;;;;;;;36.81;27.94;99533.97;5052688;28;842;-63
2021/07/29 06:47:32;;;;;;;;;;;;;;;36.69;28.14;99537.38;5052864;28;818;-63
2021/07/29 06:49:59;;;;;;;;;;;;;;;36.70;27.79;99541.78;5052526;28;1878;-63
2021/07/29 06:52:26;;;;;;;;;;;;;;;36.58;28.25;99537.88;5052931;28;830;-63
2021/07/29 06:54:53;;;;;;;;;;;;;;;36.49;28.95;99542.19;5052512;28;897;-63
2021/07/29 06:57:19;;;;;;;;;;;;;;;36.51;28.83;99541.56;5052528;28;961;-63
2021/07/29 06:59:46;;;;;;;;;;;;;;;36.98;28.42;99542.59;5052344;28;858;-63
2021/07/29 07:02:12;;;;;;;;;;;;;;;37.21;28.13;99535.78;5052443;28;818;-63
2021/07/29 07:04:38;;;;;;;;;;;;;;;37.58;26.43;99543.16;5052353;28;815;-63
2021/07/29 07:07:11;;;;;;;;;;;;;;;37.90;25.84;99541.28;5052526;28;1007;-62
2021/07/29 07:09:38;;;;;;;;;;;;;;;38.10;26.49;99544.25;5034544;28;1939;-63
2021/07/29 07:12:05;;;;;;;;;;;;;;;38.59;25.37;99539.34;5052276;28;830;-62
2021/07/29 07:14:32;;;;;;;;;;;;;;;38.87;25.44;99539.94;5051924;28;1250;-63
2021/07/29 07:16:58;;;;;;;;;;;;;;;38.87;24.64;99545.69;5052185;28;822;-59
2021/07/29 07:19:25;;;;;;;;;;;;;;;39.06;24.02;99542.81;5052072;28;928;-58
2021/07/29 07:21:52;;;;;;;;;;;;;;;39.01;24.32;99543.91;5052126;28;810;-58
2021/07/29 07:24:17;;;;;;;;;;;;;;;39.38;23.92;99544.41;5051849;28;866;-58
2021/07/29 07:26:44;;;;;;;;;;;;;;;39.14;23.73;99534.75;5052049;28;846;-58
2021/07/29 07:29:11;;;;;;;;;;;;;;;38.86;24.24;99532.63;5051861;28;1906;-58
2021/07/29 07:31:37;;;;;;;;;;;;;;;38.80;23.80;99539.47;5033998;28;1002;-58
2021/07/29 07:34:04;;;;;;;;;;;;;;;38.60;23.90;99535.84;5051767;28;929;-58
2021/07/29 07:36:30;;;;;;;;;;;;;;;38.50;24.28;99540.09;5051837;28;810;-59
2021/07/29 07:38:57;;;;;;;;;;;;;;;38.67;23.67;99536.31;5051761;28;953;-59
2021/07/29 07:41:23;;;;;;;;;;;;;;;38.71;23.61;99537.38;5051540;28;959;-58
2021/07/29 07:43:50;;;;;;;;;;;;;;;38.89;23.62;99540.84;5051754;28;961;-59
2021/07/29 07:46:17;;;;;;;;;;;;;;;39.20;23.63;99538.06;5051736;28;875;-59
2021/07/29 07:48:45;;;;;;;;;;;;;;;39.49;23.06;99545.16;5051691;28;807;-58
2021/07/29 07:51:12;;;;;;;;;;;;;;;39.92;22.74;99534.47;5051430;28;1001;-58
2021/07/29 07:53:38;;;;;;;;;;;;;;;39.67;23.19;99534.91;5051634;28;791;-59
2021/07/29 07:56:05;;;;;;;;;;;;;;;40.02;22.79;99531.53;5033759;28;767;-59
2021/07/29 07:58:32;;;;;;;;;;;;;;;40.31;22.68;99527.72;5051591;28;901;-59
2021/07/29 08:01:02;;;;;;;;;;;;;;;40.35;22.52;99531.66;5051527;28;899;-59
2021/07/29 08:03:28;;;;;;;;;;;;;;;40.53;22.25;99534.28;5051487;28;865;-58
2021/07/29 08:05:55;;;;;;;;;;;;;;;40.52;22.27;99530.63;5051444;28;883;-59
2021/07/29 08:08:22;;;;;;;;;;;;;;;40.55;21.55;99528.63;5051305;28;926;-58
2021/07/29 08:10:50;;;;;;;;;;;;;;;40.16;21.63;99528.84;5051466;28;1887;-58
2021/07/29 08:13:16;;;;;;;;;;;;;;;40.19;21.58;99522.59;5051264;28;938;-59
2021/07/29 08:15:43;;;;;;;;;;;;;;;39.99;22.30;99521.22;5051085;28;1242;-58
2021/07/29 08:18:11;;;;;;;;;;;;;;;39.97;22.18;99530.50;5033524;28;2279;-58
2021/07/29 08:20:42;;;;;;;;;;;;;;;39.92;22.48;99530.84;5051257;28;893;-59
2021/07/29 08:23:09;;;;;;;;;;;;;;;39.46;22.85;99524.03;5051254;28;914;-58
2021/07/29 08:25:36;;;;;;;;;;;;;;;39.54;22.59;99518.81;5051286;28;822;-58
2021/07/29 08:28:02;;;;;;;;;;;;;;;39.45;22.90;99515.97;5051152;28;854;-59
2021/07/29 08:30:29;;;;;;;;;;;;;;;39.57;22.46;99511.81;5051114;28;1980;-58
2021/07/29 08:32:56;;;;;;;;;;;;;;;39.29;22.65;99524.22;5051192;28;846;-59
2021/07/29 08:35:22;;;;;;;;;;;;;;;39.38;22.89;99518.38;5051140;28;795;-58
2021/07/29 08:37:49;;;;;;;;;;;;;;;39.45;22.63;99508.03;5051275;28;823;-58
2021/07/29 08:40:17;;;;;;;;;;;;;;;39.73;22.72;99517.19;5050923;28;977;-59
2021/07/29 08:42:46;;;;;;;;;;;;;;;39.93;22.71;99517.91;5050943;28;918;-58
2021/07/29 08:45:13;;;;;;;;;;;;;;;40.25;22.15;99519.38;5051068;28;872;-59
2021/07/29 08:47:42;;;;;;;;;;;;;;;40.23;21.84;99510.53;5050941;28;1102;-58
2021/07/29 08:50:09;;;;;;;;;;;;;;;40.10;21.91;99514.00;5050950;28;1890;-58
2021/07/29 08:52:36;;;;;;;;;;;;;;;40.46;21.29;99506.28;5051004;28;831;-59
2021/07/29 08:55:03;;;;;;;;;;;;;;;40.54;21.30;99509.72;5051022;28;881;-58
2021/07/29 08:57:30;;;;;;;;;;;;;;;40.51;21.77;99503.03;5051006;28;814;-59
2021/07/29 08:59:59;;;;;;;;;;;;;;;40.46;21.74;99506.28;5053159;28;1164;-59
2021/07/29 09:02:26;;;;;;;;;;;;;;;40.34;21.20;99498.28;5054674;28;814;-58
2021/07/29 09:05:11;;;;;;;;;;;;;;;40.32;21.46;99498.16;5054587;28;898;-58
2021/07/29 09:07:39;;;;;;;;;;;;;;;40.24;21.27;99500.47;5054499;28;945;-58
2021/07/29 09:10:17;;;;;;;;;;;;;;;40.07;21.25;99495.72;5054274;28;1971;-59
2021/07/29 09:12:44;;;;;;;;;;;;;;;40.04;21.44;99493.31;5054709;28;886;-58
2021/07/29 09:15:20;;;;;;;;;;;;;;;40.18;21.09;99491.38;5054372;28;1384;-59
2021/07/29 09:17:46;;;;;;;;;;;;;;;40.25;21.25;99489.66;5054467;28;857;-58
2021/07/29 09:20:19;;;;;;;;;;;;;;;40.19;21.43;99482.06;5054382;28;806;-59
2021/07/29 09:22:53;;;;;;;;;;;;;;;40.17;21.38;99476.16;5054261;28;866;-58
2021/07/29 09:25:23;;;;;;;;;;;;;;;39.88;22.42;99479.25;5054483;28;865;-58
2021/07/29 09:27:50;;;;;;;;;;;;;;;39.75;21.89;99479.75;5054313;28;798;-59
2021/07/29 09:30:23;;;;;;;;;;;;;;;39.66;21.94;99472.66;5054015;28;1937;-59
2021/07/29 09:33:12;;;;;;;;;;;;;;;39.81;21.99;99471.50;5054129;28;842;-59
2021/07/29 09:35:40;;;;;;;;;;;;;;;39.54;22.53;99472.56;5054031;28;910;-58
2021/07/29 09:38:09;;;;;;;;;;;;;;;39.56;22.42;99469.03;5054020;28;877;-59
2021/07/29 09:40:45;;;;;;;;;;;;;;;39.53;22.23;99470.28;5053850;28;971;-58
2021/07/29 09:43:14;;;;;;;;;;;;;;;39.49;21.95;99464.97;5053793;28;930;-58
2021/07/29 09:45:42;;;;;;;;;;;;;;;39.42;22.60;99465.94;5053760;28;927;-58
2021/07/29 09:48:09;;;;;;;;;;;;;;;39.26;23.03;99465.50;5053766;28;930;-58
2021/07/29 09:50:37;;;;;;;;;;;;;;;39.26;22.48;99468.38;5053598;28;1906;-58
2021/07/29 09:53:04;;;;;;;;;;;;;;;38.87;22.80;99471.38;5053847;28;890;-58
2021/07/29 09:55:32;;;;;;;;;;;;;;;38.43;23.45;99468.81;5053711;28;811;-58
2021/07/29 09:58:02;;;;;;;;;;;;;;;38.52;24.21;99468.09;5053543;28;847;-58
2021/07/29 10:00:29;;;;;;;;;;;;;;;38.64;24.03;99462.44;5053778;28;856;-58
2021/07/29 10:02:56;;;;;;;;;;;;;;;38.49;23.81;99460.59;5053564;28;890;-58
2021/07/29 10:05:27;;;;;;;;;;;;;;;38.30;24.15;99467.91;5053495;28;814;-59
2021/07/29 10:07:55;;;;;;;;;;;;;;;38.32;23.91;99462.25;5053532;28;822;-58
2021/07/29 10:10:25;;;;;;;;;;;;;;;38.06;23.92;99457.41;5053150;28;1951;-59
2021/07/29 10:12:51;;;;;;;;;;;;;;;38.18;24.03;99459.09;5053245;28;996;-59
2021/07/29 10:15:38;;;;;;;;;;;;;;;38.30;23.99;99458.47;5053159;28;1357;-58
2021/07/29 10:18:06;;;;;;;;;;;;;;;38.18;24.32;99459.09;5053198;28;851;-59
2021/07/29 10:20:33;;;;;;;;;;;;;;;37.94;24.01;99460.84;5035525;28;923;-58
2021/07/29 10:23:14;;;;;;;;;;;;;;;37.78;24.00;99462.50;5053075;28;946;-59
2021/07/29 10:25:52;;;;;;;;;;;;;;;37.79;24.05;99461.13;5052967;28;1034;-59
2021/07/29 10:28:26;;;;;;;;;;;;;;;37.87;24.29;99461.75;5053362;28;902;-59
2021/07/29 10:30:57;;;;;;;;;;;;;;;38.08;23.89;99464.06;5035211;28;1967;-58
2021/07/29 10:33:24;;;;;;;;;;;;;;;38.25;24.00;99454.53;5052945;28;882;-58
2021/07/29 10:35:51;;;;;;;;;;;;;;;38.32;24.20;99458.63;5052959;28;889;-59
2021/07/29 10:38:36;;;;;;;;;;;;;;;38.24;23.79;99452.25;5034975;28;1208;-58
2021/07/29 10:41:06;;;;;;;;;;;;;;;38.23;23.45;99460.16;5052839;28;909;-58
2021/07/29 10:43:33;;;;;;;;;;;;;;;38.19;23.51;99451.19;5052784;28;913;-59
2021/07/29 10:46:01;;;;;;;;;;;;;;;38.40;23.97;99447.69;5052679;28;818;-59
2021/07/29 10:48:40;;;;;;;;;;;;;;;38.54;23.48;99439.38;5052625;28;922;-59
2021/07/29 10:51:16;;;;;;;;;;;;;;;38.74;23.36;99437.94;5052433;28;1870;-59
2021/07/29 10:53:44;;;;;;;;;;;;;;;39.14;23.26;99436.50;5034656;28;1527;-59
2021/07/29 10:56:14;;;;;;;;;;;;;;;39.34;23.03;99430.63;5052844;28;849;-59
2021/07/29 10:58:44;;;;;;;;;;;;;;;39.32;22.64;99433.38;5052426;28;938;-58
2021/07/29 11:01:12;;;;;;;;;;;;;;;39.15;22.71;99429.34;5034745;28;841;-59
2021/07/29 11:03:45;;;;;;;;;;;;;;;38.97;22.72;99433.84;5052654;28;905;-59
2021/07/29 11:06:40;;;;;;;;;;;;;;;38.93;22.01;99428.47;5052252;28;894;-59
2021/07/29 11:09:16;;;;;;;;;;;;;;;38.90;22.77;99423.94;5052058;28;1894;-58
2021/07/29 11:11:43;;;;;;;;;;;;;;;38.89;22.65;99418.78;5052425;28;834;-58
2021/07/29 11:14:10;;;;;;;;;;;;;;;38.86;22.67;99422.88;5034808;28;1181;-59
2021/07/29 11:16:37;;;;;;;;;;;;;;;38.98;22.91;99412.22;5052211;28;1683;-59
2021/07/29 11:19:05;;;;;;;;;;;;;;;39.10;22.98;99409.47;5052430;28;884;-59
2021/07/29 11:21:32;;;;;;;;;;;;;;;39.19;22.19;99397.84;5051903;28;830;-59
2021/07/29 11:23:59;;;;;;;;;;;;;;;39.46;21.83;99396.84;5052113;28;878;-59
2021/07/29 11:26:26;;;;;;;;;;;;;;;39.70;22.46;99394.09;5052113;28;925;-59
2021/07/29 11:29:09;;;;;;;;;;;;;;;39.72;22.41;99389.22;5051964;28;899;-59
2021/07/29 11:31:36;;;;;;;;;;;;;;;39.87;21.57;99387.31;5051752;28;922;-59
2021/07/29 11:34:03;;;;;;;;;;;;;;;40.13;22.35;99388.31;5051933;28;814;-59
2021/07/29 11:36:31;;;;;;;;;;;;;;;40.42;22.45;99385.94;5051881;28;815;-59
2021/07/29 11:39:00;;;;;;;;;;;;;;;40.34;21.70;99382.50;5051554;28;881;-59
2021/07/29 11:41:28;;;;;;;;;;;;;;;40.28;22.16;99382.09;5052095;28;823;-59
2021/07/29 11:43:55;;;;;;;;;;;;;;;40.53;22.27;99381.56;5052147;28;850;-59
2021/07/29 11:46:21;;;;;;;;;;;;;;;40.48;21.91;99387.69;5052062;28;874;-59
2021/07/29 11:48:59;;;;;;;;;;;;;;;40.54;21.94;99380.19;5051683;28;839;-57
2021/07/29 11:51:26;;;;;;;;;;;;;;;40.68;21.24;99391.91;5051704;28;822;-57
2021/07/29 11:53:53;;;;;;;;;;;;;;;40.80;20.74;99383.28;5051477;28;884;-57
2021/07/29 11:56:20;;;;;;;;;;;;;;;41.13;20.87;99377.38;5033673;28;1520;-57
2021/07/29 11:58:57;;;;;;;;;;;;;;;41.27;21.16;99379.66;5051572;28;865;-57
2021/07/29 12:01:24;;;;;;;;;;;;;;;41.50;20.98;99391.22;5033898;28;848;-57
2021/07/29 12:03:52;;;;;;;;;;;;;;;41.73;20.68;99383.91;5051754;28;780;-57
2021/07/29 12:06:18;;;;;;;;;;;;;;;41.59;20.63;99381.69;5051586;28;901;-57
2021/07/29 12:08:46;;;;;;;;;;;;;;;41.59;20.72;99375.88;5052366;28;846;-57
2021/07/29 12:11:14;;;;;;;;;;;;;;;41.77;20.07;99360.94;5051503;28;1878;-57
2021/07/29 12:13:41;;;;;;;;;;;;;;;41.80;20.04;99362.56;5033747;28;1334;-57
2021/07/29 12:16:07;;;;;;;;;;;;;;;41.84;19.81;99365.72;5051175;28;1602;-57
2021/07/29 12:18:33;;;;;;;;;;;;;;;41.82;20.18;99351.84;5051580;28;850;-57
2021/07/29 12:21:00;;;;;;;;;;;;;;;41.96;20.70;99349.00;5051323;28;1269;-57
2021/07/29 12:23:28;;;;;;;;;;;;;;;42.30;19.85;99355.31;5051976;28;771;-57
2021/07/29 12:26:10;;;;;;;;;;;;;;;42.18;19.22;99349.56;5033590;28;1097;-57
2021/07/29 12:28:39;;;;;;;;;;;;;;;41.98;19.21;99345.50;5051145;28;934;-57
2021/07/29 12:31:18;;;;;;;;;;;;;;;41.90;18.69;99339.97;5051044;28;1913;-57
2021/07/29 12:33:52;;;;;;;;;;;;;;;41.88;18.71;99336.94;5051568;28;861;-57
2021/07/29 12:36:20;;;;;;;;;;;;;;;42.30;18.40;99329.19;5055039;28;934;-57
2021/07/29 12:38:55;;;;;;;;;;;;;;;42.41;18.73;99324.72;5055087;28;961;-57
2021/07/29 12:41:33;;;;;;;;;;;;;;;42.53;18.39;99319.63;5055205;28;830;-57
2021/07/29 12:44:06;;;;;;;;;;;;;;;42.83;18.18;99320.56;5055146;28;1011;-57
2021/07/29 12:46:34;;;;;;;;;;;;;;;43.13;17.85;99317.75;5055562;28;822;-58
2021/07/29 12:49:01;;;;;;;;;;;;;;;43.36;17.51;99321.84;5055459;28;1893;-57
2021/07/29 12:51:34;;;;;;;;;;;;;;;43.54;17.50;99322.81;5055425;28;807;-57
2021/07/29 12:54:02;;;;;;;;;;;;;;;43.82;17.43;99311.88;5054780;28;911;-58
2021/07/29 12:56:28;;;;;;;;;;;;;;;43.68;18.56;99304.59;5054823;28;945;-57
2021/07/29 12:58:55;;;;;;;;;;;;;;;43.09;19.64;99317.53;5036791;28;1483;-57
2021/07/29 13:01:22;;;;;;;;;;;;;;;42.31;20.22;99313.28;5054862;28;882;-57
2021/07/29 13:03:50;;;;;;;;;;;;;;;42.20;20.51;99322.81;5054906;28;814;-58
2021/07/29 13:06:17;;;;;;;;;;;;;;;42.00;20.58;99308.66;5054467;28;890;-58
2021/07/29 13:08:43;;;;;;;;;;;;;;;41.98;21.35;99314.31;5054596;28;918;-58
2021/07/29 13:11:11;;;;;;;;;;;;;;;41.80;21.90;99307.44;5054447;28;1922;-58
2021/07/29 13:13:39;;;;;;;;;;;;;;;41.73;22.50;99305.59;5054625;28;1317;-57
2021/07/29 13:16:05;;;;;;;;;;;;;;;41.85;22.16;99312.09;5054275;28;1382;-57
2021/07/29 13:18:32;;;;;;;;;;;;;;;41.74;22.05;99299.16;5054501;28;932;-57